PTSA/KSA METAR and TAF weather

Enter ICAO airport designator
Station Type Date Time Source
PTSA METAR 2020/01/17 22:50 UTC NOAA

PTSA 172250Z 07011KT 10SM SCT020 OVC300 30/24 A2977


Station Type Date Time Source
PTSA Decoded METAR 2020/01/17 22:50 UTC NOAA

Kosrae Island, Kosrae Airport, Micronesia, Federated States of (PTSA) 05-21N 162-57E
Jan 17, 2020 - 05:50 PM EST / 2020.01.17 2250 UTC
Wind: from the ENE (070 degrees) at 13 MPH (11 KT):0
Visibility: 10 mile(s):0
Sky conditions: overcast
Temperature: 86 F (30 C)
Heat index: 95.0 F (35.0 C):1
Dew Point: 75 F (24 C)
Relative Humidity: 70%
Pressure (altimeter): 29.77 in. Hg (1008 hPa)
ob: PTSA 172250Z 07011KT 10SM SCT020 OVC300 30/24 A2977
cycle: 23

Station Type Date Time Source
PTSA TAF 2020/01/17 22:35 UTC NOAA

TAF PTSA 172227Z 1722/1818 08010KT P6SM VCSH SCT020 SCT060

Example: see airport list